sensor_id;sensor_type;location;lat;lon;timestamp;P1;durP1;ratioP1;P2;durP2;ratioP2
29848;SDS011;16728;50.832;5.590;2023-05-07T00:02:11;9.48;;;7.63;;
29848;SDS011;16728;50.832;5.590;2023-05-07T00:05:13;13.68;;;7.88;;
29848;SDS011;16728;50.832;5.590;2023-05-07T00:08:16;13.73;;;7.93;;
29848;SDS011;16728;50.832;5.590;2023-05-07T00:11:18;8.77;;;7.43;;
29848;SDS011;16728;50.832;5.590;2023-05-07T00:14:20;8.60;;;7.00;;
29848;SDS011;16728;50.832;5.590;2023-05-07T00:17:22;7.55;;;6.75;;
29848;SDS011;16728;50.832;5.590;2023-05-07T00:20:24;9.23;;;6.95;;
29848;SDS011;16728;50.832;5.590;2023-05-07T00:23:26;8.68;;;6.97;;
29848;SDS011;16728;50.832;5.590;2023-05-07T00:26:28;8.95;;;6.75;;
29848;SDS011;16728;50.832;5.590;2023-05-07T00:29:31;8.98;;;6.97;;
29848;SDS011;16728;50.832;5.590;2023-05-07T00:32:33;12.68;;;7.45;;
29848;SDS011;16728;50.832;5.590;2023-05-07T00:35:35;9.38;;;7.57;;
29848;SDS011;16728;50.832;5.590;2023-05-07T00:38:37;13.35;;;7.72;;
29848;SDS011;16728;50.832;5.590;2023-05-07T00:41:40;7.60;;;6.87;;
29848;SDS011;16728;50.832;5.590;2023-05-07T00:44:43;9.40;;;7.07;;
29848;SDS011;16728;50.832;5.590;2023-05-07T00:47:45;8.43;;;7.53;;
29848;SDS011;16728;50.832;5.590;2023-05-07T00:50:47;9.10;;;7.07;;
29848;SDS011;16728;50.832;5.590;2023-05-07T00:53:49;12.50;;;7.82;;
29848;SDS011;16728;50.832;5.590;2023-05-07T00:56:51;13.98;;;8.40;;
29848;SDS011;16728;50.832;5.590;2023-05-07T00:59:53;8.63;;;7.43;;
29848;SDS011;16728;50.832;5.590;2023-05-07T01:02:55;11.18;;;7.93;;
29848;SDS011;16728;50.832;5.590;2023-05-07T01:05:59;12.00;;;7.07;;
29848;SDS011;16728;50.832;5.590;2023-05-07T01:12:06;7.72;;;7.00;;
29848;SDS011;16728;50.832;5.590;2023-05-07T01:15:08;11.07;;;7.70;;
29848;SDS011;16728;50.832;5.590;2023-05-07T01:18:11;8.87;;;7.43;;
29848;SDS011;16728;50.832;5.590;2023-05-07T01:21:13;10.52;;;7.90;;
29848;SDS011;16728;50.832;5.590;2023-05-07T01:24:23;8.32;;;7.50;;
29848;SDS011;16728;50.832;5.590;2023-05-07T01:27:25;11.40;;;8.60;;
29848;SDS011;16728;50.832;5.590;2023-05-07T01:30:30;10.02;;;8.43;;
29848;SDS011;16728;50.832;5.590;2023-05-07T01:33:33;9.98;;;8.50;;
29848;SDS011;16728;50.832;5.590;2023-05-07T01:36:40;10.07;;;9.07;;
29848;SDS011;16728;50.832;5.590;2023-05-07T01:39:44;10.07;;;9.07;;
29848;SDS011;16728;50.832;5.590;2023-05-07T01:42:48;10.38;;;9.38;;
29848;SDS011;16728;50.832;5.590;2023-05-07T01:45:50;11.18;;;10.05;;
29848;SDS011;16728;50.832;5.590;2023-05-07T01:48:55;10.32;;;9.23;;
29848;SDS011;16728;50.832;5.590;2023-05-07T01:51:57;10.23;;;9.23;;
29848;SDS011;16728;50.832;5.590;2023-05-07T01:55:02;11.48;;;9.25;;
29848;SDS011;16728;50.832;5.590;2023-05-07T01:58:06;11.52;;;9.48;;
29848;SDS011;16728;50.832;5.590;2023-05-07T02:01:08;10.15;;;8.68;;
29848;SDS011;16728;50.832;5.590;2023-05-07T02:04:09;9.88;;;8.88;;
29848;SDS011;16728;50.832;5.590;2023-05-07T02:07:11;11.57;;;8.85;;
29848;SDS011;16728;50.832;5.590;2023-05-07T02:10:13;10.65;;;9.63;;
29848;SDS011;16728;50.832;5.590;2023-05-07T02:13:16;10.90;;;9.77;;
29848;SDS011;16728;50.832;5.590;2023-05-07T02:16:18;10.67;;;9.67;;
29848;SDS011;16728;50.832;5.590;2023-05-07T02:19:21;10.40;;;9.35;;
29848;SDS011;16728;50.832;5.590;2023-05-07T02:22:23;12.65;;;9.57;;
29848;SDS011;16728;50.832;5.590;2023-05-07T02:25:25;11.75;;;9.40;;
29848;SDS011;16728;50.832;5.590;2023-05-07T02:28:26;10.75;;;9.10;;
29848;SDS011;16728;50.832;5.590;2023-05-07T02:31:29;11.25;;;9.38;;
29848;SDS011;16728;50.832;5.590;2023-05-07T02:34:31;10.90;;;9.00;;
29848;SDS011;16728;50.832;5.590;2023-05-07T02:37:34;11.47;;;9.10;;
29848;SDS011;16728;50.832;5.590;2023-05-07T02:40:36;10.85;;;9.75;;
29848;SDS011;16728;50.832;5.590;2023-05-07T02:43:41;11.88;;;9.15;;
29848;SDS011;16728;50.832;5.590;2023-05-07T02:46:43;11.98;;;9.55;;
29848;SDS011;16728;50.832;5.590;2023-05-07T02:49:47;9.35;;;8.38;;
29848;SDS011;16728;50.832;5.590;2023-05-07T02:52:49;9.02;;;7.95;;
29848;SDS011;16728;50.832;5.590;2023-05-07T02:55:52;13.43;;;8.30;;
29848;SDS011;16728;50.832;5.590;2023-05-07T02:58:54;9.30;;;8.40;;
29848;SDS011;16728;50.832;5.590;2023-05-07T03:01:57;9.32;;;8.38;;
29848;SDS011;16728;50.832;5.590;2023-05-07T03:04:58;10.05;;;9.05;;
29848;SDS011;16728;50.832;5.590;2023-05-07T03:08:03;9.48;;;8.48;;
29848;SDS011;16728;50.832;5.590;2023-05-07T03:11:05;12.50;;;9.15;;
29848;SDS011;16728;50.832;5.590;2023-05-07T03:14:07;11.85;;;9.55;;
29848;SDS011;16728;50.832;5.590;2023-05-07T03:17:09;11.00;;;9.98;;
29848;SDS011;16728;50.832;5.590;2023-05-07T03:20:11;9.57;;;8.70;;
29848;SDS011;16728;50.832;5.590;2023-05-07T03:23:14;9.95;;;8.95;;
29848;SDS011;16728;50.832;5.590;2023-05-07T03:26:17;11.67;;;9.67;;
29848;SDS011;16728;50.832;5.590;2023-05-07T03:29:19;11.45;;;10.18;;
29848;SDS011;16728;50.832;5.590;2023-05-07T03:32:21;12.55;;;9.57;;
29848;SDS011;16728;50.832;5.590;2023-05-07T03:35:23;11.05;;;9.30;;
29848;SDS011;16728;50.832;5.590;2023-05-07T03:38:26;10.88;;;9.02;;
29848;SDS011;16728;50.832;5.590;2023-05-07T03:41:28;9.90;;;8.90;;
29848;SDS011;16728;50.832;5.590;2023-05-07T03:44:35;10.75;;;8.98;;
29848;SDS011;16728;50.832;5.590;2023-05-07T03:47:37;10.65;;;9.55;;
29848;SDS011;16728;50.832;5.590;2023-05-07T03:50:40;10.10;;;8.97;;
29848;SDS011;16728;50.832;5.590;2023-05-07T03:53:41;10.80;;;9.43;;
29848;SDS011;16728;50.832;5.590;2023-05-07T03:56:44;11.25;;;9.15;;
29848;SDS011;16728;50.832;5.590;2023-05-07T03:59:46;9.63;;;8.52;;
29848;SDS011;16728;50.832;5.590;2023-05-07T04:02:49;10.20;;;8.88;;
29848;SDS011;16728;50.832;5.590;2023-05-07T04:05:51;10.45;;;8.77;;
29848;SDS011;16728;50.832;5.590;2023-05-07T04:08:53;9.75;;;8.73;;
29848;SDS011;16728;50.832;5.590;2023-05-07T04:11:55;13.00;;;9.07;;
29848;SDS011;16728;50.832;5.590;2023-05-07T04:14:57;12.32;;;8.55;;
29848;SDS011;16728;50.832;5.590;2023-05-07T04:17:59;10.15;;;8.10;;
29848;SDS011;16728;50.832;5.590;2023-05-07T04:21:01;9.65;;;8.00;;
29848;SDS011;16728;50.832;5.590;2023-05-07T04:24:03;9.35;;;7.72;;
29848;SDS011;16728;50.832;5.590;2023-05-07T04:27:05;9.73;;;8.18;;
29848;SDS011;16728;50.832;5.590;2023-05-07T04:30:07;10.45;;;8.30;;
29848;SDS011;16728;50.832;5.590;2023-05-07T04:33:10;13.17;;;9.07;;
29848;SDS011;16728;50.832;5.590;2023-05-07T04:36:13;10.13;;;9.05;;
29848;SDS011;16728;50.832;5.590;2023-05-07T04:39:15;17.17;;;15.02;;
29848;SDS011;16728;50.832;5.590;2023-05-07T04:42:17;18.75;;;16.85;;
29848;SDS011;16728;50.832;5.590;2023-05-07T04:45:20;14.10;;;9.95;;
29848;SDS011;16728;50.832;5.590;2023-05-07T04:48:23;16.17;;;9.65;;
29848;SDS011;16728;50.832;5.590;2023-05-07T04:51:25;13.32;;;10.18;;
29848;SDS011;16728;50.832;5.590;2023-05-07T04:54:27;12.65;;;10.35;;
29848;SDS011;16728;50.832;5.590;2023-05-07T04:57:29;12.32;;;10.18;;
29848;SDS011;16728;50.832;5.590;2023-05-07T05:00:31;10.82;;;9.73;;
29848;SDS011;16728;50.832;5.590;2023-05-07T05:03:34;13.35;;;10.30;;
29848;SDS011;16728;50.832;5.590;2023-05-07T05:06:36;12.20;;;9.50;;
29848;SDS011;16728;50.832;5.590;2023-05-07T05:09:43;10.93;;;9.95;;
29848;SDS011;16728;50.832;5.590;2023-05-07T05:12:46;11.45;;;9.85;;
29848;SDS011;16728;50.832;5.590;2023-05-07T05:15:47;12.88;;;11.00;;
29848;SDS011;16728;50.832;5.590;2023-05-07T05:18:49;11.40;;;10.27;;
29848;SDS011;16728;50.832;5.590;2023-05-07T05:24:54;14.15;;;10.35;;
29848;SDS011;16728;50.832;5.590;2023-05-07T05:27:56;11.10;;;10.00;;
29848;SDS011;16728;50.832;5.590;2023-05-07T05:30:58;11.65;;;10.45;;
29848;SDS011;16728;50.832;5.590;2023-05-07T05:37:03;13.90;;;10.68;;
29848;SDS011;16728;50.832;5.590;2023-05-07T05:40:05;12.15;;;10.95;;
29848;SDS011;16728;50.832;5.590;2023-05-07T05:43:08;13.00;;;11.65;;
29848;SDS011;16728;50.832;5.590;2023-05-07T05:46:11;12.75;;;11.32;;
29848;SDS011;16728;50.832;5.590;2023-05-07T05:49:13;12.18;;;9.68;;
29848;SDS011;16728;50.832;5.590;2023-05-07T05:52:15;11.48;;;10.20;;
29848;SDS011;16728;50.832;5.590;2023-05-07T05:55:18;15.88;;;10.50;;
29848;SDS011;16728;50.832;5.590;2023-05-07T05:58:22;12.95;;;11.65;;
29848;SDS011;16728;50.832;5.590;2023-05-07T06:01:24;14.18;;;11.35;;
29848;SDS011;16728;50.832;5.590;2023-05-07T06:04:27;14.20;;;12.55;;
29848;SDS011;16728;50.832;5.590;2023-05-07T06:07:28;12.73;;;11.38;;
29848;SDS011;16728;50.832;5.590;2023-05-07T06:10:31;12.32;;;10.88;;
29848;SDS011;16728;50.832;5.590;2023-05-07T06:13:33;11.38;;;10.27;;
29848;SDS011;16728;50.832;5.590;2023-05-07T06:16:36;12.55;;;9.85;;
29848;SDS011;16728;50.832;5.590;2023-05-07T06:19:39;12.20;;;10.87;;
29848;SDS011;16728;50.832;5.590;2023-05-07T06:22:42;10.30;;;9.33;;
29848;SDS011;16728;50.832;5.590;2023-05-07T06:25:50;17.63;;;10.48;;
29848;SDS011;16728;50.832;5.590;2023-05-07T06:28:52;11.88;;;10.65;;
29848;SDS011;16728;50.832;5.590;2023-05-07T06:31:54;14.18;;;11.07;;
29848;SDS011;16728;50.832;5.590;2023-05-07T06:34:57;12.23;;;9.65;;
29848;SDS011;16728;50.832;5.590;2023-05-07T06:37:59;10.15;;;9.15;;
29848;SDS011;16728;50.832;5.590;2023-05-07T06:41:03;12.38;;;7.70;;
29848;SDS011;16728;50.832;5.590;2023-05-07T06:44:06;13.32;;;7.85;;
29848;SDS011;16728;50.832;5.590;2023-05-07T06:47:10;11.50;;;7.95;;
29848;SDS011;16728;50.832;5.590;2023-05-07T06:50:16;11.77;;;8.40;;
29848;SDS011;16728;50.832;5.590;2023-05-07T06:53:18;13.70;;;8.27;;
29848;SDS011;16728;50.832;5.590;2023-05-07T06:56:20;12.77;;;9.95;;
29848;SDS011;16728;50.832;5.590;2023-05-07T06:59:23;8.82;;;7.95;;
29848;SDS011;16728;50.832;5.590;2023-05-07T07:02:25;7.97;;;7.18;;
29848;SDS011;16728;50.832;5.590;2023-05-07T07:05:27;10.93;;;7.03;;
29848;SDS011;16728;50.832;5.590;2023-05-07T07:08:29;10.27;;;6.50;;
29848;SDS011;16728;50.832;5.590;2023-05-07T07:11:31;7.82;;;5.85;;
29848;SDS011;16728;50.832;5.590;2023-05-07T07:14:32;9.52;;;5.70;;
29848;SDS011;16728;50.832;5.590;2023-05-07T07:17:34;6.10;;;5.15;;
29848;SDS011;16728;50.832;5.590;2023-05-07T07:20:36;12.25;;;5.38;;
29848;SDS011;16728;50.832;5.590;2023-05-07T07:26:42;7.05;;;4.70;;
29848;SDS011;16728;50.832;5.590;2023-05-07T07:29:44;7.03;;;4.83;;
29848;SDS011;16728;50.832;5.590;2023-05-07T07:32:46;9.20;;;4.47;;
29848;SDS011;16728;50.832;5.590;2023-05-07T07:35:49;9.50;;;4.82;;
29848;SDS011;16728;50.832;5.590;2023-05-07T07:38:51;5.25;;;4.75;;
29848;SDS011;16728;50.832;5.590;2023-05-07T07:41:56;4.53;;;4.13;;
29848;SDS011;16728;50.832;5.590;2023-05-07T07:44:58;10.10;;;5.45;;
29848;SDS011;16728;50.832;5.590;2023-05-07T07:48:05;5.65;;;5.13;;
29848;SDS011;16728;50.832;5.590;2023-05-07T07:51:07;8.43;;;5.47;;
29848;SDS011;16728;50.832;5.590;2023-05-07T07:54:09;10.73;;;7.45;;
29848;SDS011;16728;50.832;5.590;2023-05-07T07:57:11;11.73;;;7.03;;
29848;SDS011;16728;50.832;5.590;2023-05-07T08:00:14;11.35;;;7.40;;
29848;SDS011;16728;50.832;5.590;2023-05-07T08:03:16;18.30;;;10.75;;
29848;SDS011;16728;50.832;5.590;2023-05-07T08:06:18;18.90;;;10.68;;
29848;SDS011;16728;50.832;5.590;2023-05-07T08:09:20;15.27;;;9.02;;
29848;SDS011;16728;50.832;5.590;2023-05-07T08:12:26;11.25;;;8.13;;
29848;SDS011;16728;50.832;5.590;2023-05-07T08:15:28;11.88;;;7.85;;
29848;SDS011;16728;50.832;5.590;2023-05-07T08:18:30;10.60;;;7.40;;
29848;SDS011;16728;50.832;5.590;2023-05-07T08:21:32;8.68;;;6.63;;
29848;SDS011;16728;50.832;5.590;2023-05-07T08:24:35;12.73;;;5.93;;
29848;SDS011;16728;50.832;5.590;2023-05-07T08:27:37;7.57;;;5.55;;
29848;SDS011;16728;50.832;5.590;2023-05-07T08:30:39;7.10;;;4.57;;
29848;SDS011;16728;50.832;5.590;2023-05-07T08:33:41;6.88;;;4.55;;
29848;SDS011;16728;50.832;5.590;2023-05-07T08:36:43;5.43;;;3.50;;
29848;SDS011;16728;50.832;5.590;2023-05-07T08:39:47;6.90;;;4.18;;
29848;SDS011;16728;50.832;5.590;2023-05-07T08:42:53;5.32;;;3.88;;
29848;SDS011;16728;50.832;5.590;2023-05-07T08:45:55;3.85;;;3.47;;
29848;SDS011;16728;50.832;5.590;2023-05-07T08:49:00;4.68;;;3.78;;
29848;SDS011;16728;50.832;5.590;2023-05-07T08:52:02;6.25;;;3.60;;
29848;SDS011;16728;50.832;5.590;2023-05-07T08:55:10;5.72;;;3.55;;
29848;SDS011;16728;50.832;5.590;2023-05-07T08:58:14;4.85;;;3.88;;
29848;SDS011;16728;50.832;5.590;2023-05-07T09:01:17;3.63;;;3.22;;
29848;SDS011;16728;50.832;5.590;2023-05-07T09:04:18;5.80;;;3.10;;
29848;SDS011;16728;50.832;5.590;2023-05-07T09:07:22;7.15;;;3.50;;
29848;SDS011;16728;50.832;5.590;2023-05-07T09:10:25;3.35;;;2.53;;
29848;SDS011;16728;50.832;5.590;2023-05-07T09:13:29;4.70;;;3.28;;
29848;SDS011;16728;50.832;5.590;2023-05-07T09:16:31;4.13;;;3.47;;
29848;SDS011;16728;50.832;5.590;2023-05-07T09:19:33;4.00;;;3.33;;
29848;SDS011;16728;50.832;5.590;2023-05-07T09:22:38;3.47;;;3.03;;
29848;SDS011;16728;50.832;5.590;2023-05-07T09:25:41;5.90;;;3.60;;
29848;SDS011;16728;50.832;5.590;2023-05-07T09:28:43;7.20;;;3.38;;
29848;SDS011;16728;50.832;5.590;2023-05-07T09:31:46;7.32;;;4.53;;
29848;SDS011;16728;50.832;5.590;2023-05-07T09:34:48;7.20;;;3.33;;
29848;SDS011;16728;50.832;5.590;2023-05-07T09:37:51;5.05;;;2.70;;
29848;SDS011;16728;50.832;5.590;2023-05-07T09:41:01;4.82;;;2.63;;
29848;SDS011;16728;50.832;5.590;2023-05-07T09:44:10;5.97;;;2.72;;
29848;SDS011;16728;50.832;5.590;2023-05-07T09:47:12;5.63;;;2.75;;
29848;SDS011;16728;50.832;5.590;2023-05-07T09:50:26;6.32;;;3.50;;
29848;SDS011;16728;50.832;5.590;2023-05-07T09:53:33;5.82;;;3.08;;
29848;SDS011;16728;50.832;5.590;2023-05-07T09:56:36;5.85;;;3.08;;
29848;SDS011;16728;50.832;5.590;2023-05-07T09:59:39;5.80;;;3.53;;
29848;SDS011;16728;50.832;5.590;2023-05-07T10:02:45;6.88;;;3.78;;
29848;SDS011;16728;50.832;5.590;2023-05-07T10:05:53;7.88;;;3.90;;
29848;SDS011;16728;50.832;5.590;2023-05-07T10:08:55;5.30;;;3.60;;
29848;SDS011;16728;50.832;5.590;2023-05-07T10:11:57;6.85;;;3.80;;
29848;SDS011;16728;50.832;5.590;2023-05-07T10:15:00;9.75;;;3.85;;
29848;SDS011;16728;50.832;5.590;2023-05-07T10:18:03;8.50;;;4.22;;
29848;SDS011;16728;50.832;5.590;2023-05-07T10:21:11;8.05;;;4.60;;
29848;SDS011;16728;50.832;5.590;2023-05-07T10:24:29;8.65;;;6.28;;
29848;SDS011;16728;50.832;5.590;2023-05-07T10:27:35;9.90;;;6.20;;
29848;SDS011;16728;50.832;5.590;2023-05-07T10:34:19;12.80;;;6.22;;
29848;SDS011;16728;50.832;5.590;2023-05-07T10:37:24;8.10;;;5.20;;
29848;SDS011;16728;50.832;5.590;2023-05-07T10:40:26;8.87;;;6.43;;
29848;SDS011;16728;50.832;5.590;2023-05-07T10:43:41;10.18;;;6.47;;
29848;SDS011;16728;50.832;5.590;2023-05-07T10:47:02;10.73;;;6.28;;
29848;SDS011;16728;50.832;5.590;2023-05-07T11:06:14;6.80;;;4.70;;
29848;SDS011;16728;50.832;5.590;2023-05-07T11:09:16;8.55;;;4.72;;
29848;SDS011;16728;50.832;5.590;2023-05-07T11:15:43;11.70;;;3.97;;
29848;SDS011;16728;50.832;5.590;2023-05-07T11:18:47;10.18;;;4.13;;
29848;SDS011;16728;50.832;5.590;2023-05-07T11:21:50;9.48;;;3.90;;
29848;SDS011;16728;50.832;5.590;2023-05-07T11:24:52;10.43;;;4.70;;
29848;SDS011;16728;50.832;5.590;2023-05-07T11:27:54;7.85;;;4.80;;
29848;SDS011;16728;50.832;5.590;2023-05-07T11:31:00;9.52;;;4.47;;
29848;SDS011;16728;50.832;5.590;2023-05-07T11:34:02;9.38;;;4.45;;
29848;SDS011;16728;50.832;5.590;2023-05-07T11:37:06;16.52;;;6.25;;
29848;SDS011;16728;50.832;5.590;2023-05-07T11:40:09;12.38;;;5.38;;
29848;SDS011;16728;50.832;5.590;2023-05-07T11:43:16;10.10;;;5.32;;
29848;SDS011;16728;50.832;5.590;2023-05-07T11:46:26;13.57;;;5.38;;
29848;SDS011;16728;50.832;5.590;2023-05-07T11:49:29;12.57;;;5.22;;
29848;SDS011;16728;50.832;5.590;2023-05-07T11:52:31;8.75;;;5.13;;
29848;SDS011;16728;50.832;5.590;2023-05-07T11:55:34;11.98;;;5.43;;
29848;SDS011;16728;50.832;5.590;2023-05-07T11:58:35;8.98;;;4.93;;
29848;SDS011;16728;50.832;5.590;2023-05-07T12:01:45;7.47;;;4.90;;
29848;SDS011;16728;50.832;5.590;2023-05-07T12:04:47;10.30;;;4.53;;
29848;SDS011;16728;50.832;5.590;2023-05-07T12:07:55;11.00;;;4.55;;
29848;SDS011;16728;50.832;5.590;2023-05-07T12:10:59;10.38;;;4.60;;
29848;SDS011;16728;50.832;5.590;2023-05-07T12:14:01;10.82;;;4.80;;
29848;SDS011;16728;50.832;5.590;2023-05-07T12:17:05;8.73;;;4.43;;
29848;SDS011;16728;50.832;5.590;2023-05-07T12:20:10;7.85;;;5.13;;
29848;SDS011;16728;50.832;5.590;2023-05-07T12:23:12;8.88;;;5.43;;
29848;SDS011;16728;50.832;5.590;2023-05-07T12:26:15;8.45;;;4.40;;
29848;SDS011;16728;50.832;5.590;2023-05-07T12:29:17;9.50;;;4.10;;
29848;SDS011;16728;50.832;5.590;2023-05-07T12:32:24;6.95;;;3.72;;
29848;SDS011;16728;50.832;5.590;2023-05-07T12:35:27;8.18;;;3.95;;
29848;SDS011;16728;50.832;5.590;2023-05-07T12:38:37;9.88;;;4.18;;
29848;SDS011;16728;50.832;5.590;2023-05-07T12:41:55;8.23;;;3.83;;
29848;SDS011;16728;50.832;5.590;2023-05-07T12:45:11;9.68;;;4.72;;
29848;SDS011;16728;50.832;5.590;2023-05-07T12:48:25;8.20;;;3.38;;
29848;SDS011;16728;50.832;5.590;2023-05-07T12:51:28;8.10;;;2.70;;
29848;SDS011;16728;50.832;5.590;2023-05-07T12:54:34;10.00;;;3.88;;
29848;SDS011;16728;50.832;5.590;2023-05-07T12:57:41;7.10;;;4.18;;
29848;SDS011;16728;50.832;5.590;2023-05-07T13:00:44;6.80;;;3.53;;
29848;SDS011;16728;50.832;5.590;2023-05-07T13:03:48;7.68;;;3.95;;
29848;SDS011;16728;50.832;5.590;2023-05-07T13:06:51;6.50;;;3.67;;
29848;SDS011;16728;50.832;5.590;2023-05-07T13:09:53;7.20;;;3.08;;
29848;SDS011;16728;50.832;5.590;2023-05-07T13:12:55;11.60;;;3.95;;
29848;SDS011;16728;50.832;5.590;2023-05-07T13:15:57;10.32;;;3.58;;
29848;SDS011;16728;50.832;5.590;2023-05-07T13:18:59;9.20;;;4.43;;
29848;SDS011;16728;50.832;5.590;2023-05-07T13:22:01;6.93;;;3.78;;
29848;SDS011;16728;50.832;5.590;2023-05-07T13:25:03;5.70;;;3.03;;
29848;SDS011;16728;50.832;5.590;2023-05-07T13:28:06;8.98;;;3.00;;
29848;SDS011;16728;50.832;5.590;2023-05-07T13:31:11;7.72;;;3.08;;
29848;SDS011;16728;50.832;5.590;2023-05-07T13:34:13;8.43;;;2.50;;
29848;SDS011;16728;50.832;5.590;2023-05-07T13:37:15;10.18;;;3.13;;
29848;SDS011;16728;50.832;5.590;2023-05-07T13:40:18;5.60;;;3.03;;
29848;SDS011;16728;50.832;5.590;2023-05-07T13:43:20;7.43;;;2.95;;
29848;SDS011;16728;50.832;5.590;2023-05-07T13:46:26;8.90;;;3.83;;
29848;SDS011;16728;50.832;5.590;2023-05-07T13:49:29;7.45;;;3.78;;
29848;SDS011;16728;50.832;5.590;2023-05-07T13:52:31;7.63;;;4.10;;
29848;SDS011;16728;50.832;5.590;2023-05-07T13:55:44;6.70;;;4.65;;
29848;SDS011;16728;50.832;5.590;2023-05-07T13:58:50;10.18;;;5.15;;
29848;SDS011;16728;50.832;5.590;2023-05-07T14:02:00;10.10;;;4.75;;
29848;SDS011;16728;50.832;5.590;2023-05-07T14:05:02;8.82;;;4.90;;
29848;SDS011;16728;50.832;5.590;2023-05-07T14:11:13;6.60;;;4.10;;
29848;SDS011;16728;50.832;5.590;2023-05-07T14:14:15;11.07;;;4.78;;
29848;SDS011;16728;50.832;5.590;2023-05-07T14:17:17;7.13;;;3.80;;
29848;SDS011;16728;50.832;5.590;2023-05-07T14:20:20;7.35;;;3.90;;
29848;SDS011;16728;50.832;5.590;2023-05-07T14:23:22;7.50;;;4.18;;
29848;SDS011;16728;50.832;5.590;2023-05-07T14:26:27;9.18;;;4.38;;
29848;SDS011;16728;50.832;5.590;2023-05-07T14:29:30;9.10;;;4.33;;
29848;SDS011;16728;50.832;5.590;2023-05-07T14:32:32;8.07;;;4.07;;
29848;SDS011;16728;50.832;5.590;2023-05-07T14:35:35;8.10;;;3.83;;
29848;SDS011;16728;50.832;5.590;2023-05-07T14:38:36;7.55;;;3.47;;
29848;SDS011;16728;50.832;5.590;2023-05-07T14:41:38;5.15;;;3.33;;
29848;SDS011;16728;50.832;5.590;2023-05-07T14:44:40;6.78;;;3.63;;
29848;SDS011;16728;50.832;5.590;2023-05-07T14:47:53;7.88;;;4.07;;
29848;SDS011;16728;50.832;5.590;2023-05-07T14:50:55;6.18;;;3.72;;
29848;SDS011;16728;50.832;5.590;2023-05-07T14:53:57;7.10;;;3.53;;
29848;SDS011;16728;50.832;5.590;2023-05-07T14:56:59;7.28;;;4.20;;
29848;SDS011;16728;50.832;5.590;2023-05-07T15:00:03;11.93;;;4.18;;
29848;SDS011;16728;50.832;5.590;2023-05-07T15:03:06;7.55;;;3.70;;
29848;SDS011;16728;50.832;5.590;2023-05-07T15:06:11;7.93;;;3.63;;
29848;SDS011;16728;50.832;5.590;2023-05-07T15:09:13;10.38;;;3.53;;
29848;SDS011;16728;50.832;5.590;2023-05-07T15:12:19;7.45;;;3.50;;
29848;SDS011;16728;50.832;5.590;2023-05-07T15:15:21;7.78;;;3.45;;
29848;SDS011;16728;50.832;5.590;2023-05-07T15:18:23;5.43;;;3.15;;
29848;SDS011;16728;50.832;5.590;2023-05-07T15:21:25;4.82;;;2.97;;
29848;SDS011;16728;50.832;5.590;2023-05-07T15:24:28;6.72;;;3.40;;
29848;SDS011;16728;50.832;5.590;2023-05-07T15:27:31;7.43;;;2.97;;
29848;SDS011;16728;50.832;5.590;2023-05-07T15:30:33;6.53;;;3.00;;
29848;SDS011;16728;50.832;5.590;2023-05-07T15:33:35;8.35;;;3.08;;
29848;SDS011;16728;50.832;5.590;2023-05-07T15:36:37;5.28;;;2.75;;
29848;SDS011;16728;50.832;5.590;2023-05-07T15:39:39;5.85;;;2.50;;
29848;SDS011;16728;50.832;5.590;2023-05-07T15:42:41;7.32;;;2.72;;
29848;SDS011;16728;50.832;5.590;2023-05-07T15:49:22;4.55;;;2.72;;
29848;SDS011;16728;50.832;5.590;2023-05-07T15:52:24;5.95;;;2.78;;
29848;SDS011;16728;50.832;5.590;2023-05-07T15:55:25;4.88;;;3.35;;
29848;SDS011;16728;50.832;5.590;2023-05-07T15:58:27;6.07;;;3.28;;
29848;SDS011;16728;50.832;5.590;2023-05-07T16:01:31;6.32;;;3.20;;
29848;SDS011;16728;50.832;5.590;2023-05-07T16:04:33;7.30;;;2.92;;
29848;SDS011;16728;50.832;5.590;2023-05-07T16:07:35;6.72;;;3.20;;
29848;SDS011;16728;50.832;5.590;2023-05-07T16:10:37;3.57;;;2.70;;
29848;SDS011;16728;50.832;5.590;2023-05-07T16:13:39;5.35;;;2.72;;
29848;SDS011;16728;50.832;5.590;2023-05-07T16:16:41;6.85;;;3.22;;
29848;SDS011;16728;50.832;5.590;2023-05-07T16:19:43;5.03;;;2.72;;
29848;SDS011;16728;50.832;5.590;2023-05-07T16:22:45;7.43;;;3.05;;
29848;SDS011;16728;50.832;5.590;2023-05-07T16:25:48;7.30;;;2.90;;
29848;SDS011;16728;50.832;5.590;2023-05-07T16:28:50;6.70;;;3.20;;
29848;SDS011;16728;50.832;5.590;2023-05-07T16:31:52;7.80;;;3.00;;
29848;SDS011;16728;50.832;5.590;2023-05-07T16:34:55;5.75;;;3.00;;
29848;SDS011;16728;50.832;5.590;2023-05-07T16:37:58;4.85;;;3.00;;
29848;SDS011;16728;50.832;5.590;2023-05-07T16:40:59;5.15;;;2.90;;
29848;SDS011;16728;50.832;5.590;2023-05-07T16:44:02;6.28;;;2.90;;
29848;SDS011;16728;50.832;5.590;2023-05-07T16:47:06;5.43;;;3.17;;
29848;SDS011;16728;50.832;5.590;2023-05-07T16:50:09;7.20;;;2.95;;
29848;SDS011;16728;50.832;5.590;2023-05-07T16:53:11;5.40;;;2.88;;
29848;SDS011;16728;50.832;5.590;2023-05-07T16:56:14;5.55;;;3.00;;
29848;SDS011;16728;50.832;5.590;2023-05-07T16:59:16;5.25;;;3.15;;
29848;SDS011;16728;50.832;5.590;2023-05-07T17:02:19;6.07;;;2.85;;
29848;SDS011;16728;50.832;5.590;2023-05-07T17:05:21;14.10;;;3.58;;
29848;SDS011;16728;50.832;5.590;2023-05-07T17:08:28;7.13;;;3.17;;
29848;SDS011;16728;50.832;5.590;2023-05-07T17:11:30;4.88;;;3.22;;
29848;SDS011;16728;50.832;5.590;2023-05-07T17:14:34;5.93;;;3.08;;
29848;SDS011;16728;50.832;5.590;2023-05-07T17:17:36;7.22;;;2.70;;
29848;SDS011;16728;50.832;5.590;2023-05-07T17:20:38;5.45;;;2.47;;
29848;SDS011;16728;50.832;5.590;2023-05-07T17:23:40;4.70;;;3.00;;
29848;SDS011;16728;50.832;5.590;2023-05-07T17:29:47;6.15;;;3.20;;
29848;SDS011;16728;50.832;5.590;2023-05-07T17:35:52;3.67;;;2.72;;
29848;SDS011;16728;50.832;5.590;2023-05-07T17:38:56;7.55;;;2.85;;
29848;SDS011;16728;50.832;5.590;2023-05-07T17:41:57;9.40;;;3.25;;
29848;SDS011;16728;50.832;5.590;2023-05-07T17:45:01;7.05;;;3.25;;
29848;SDS011;16728;50.832;5.590;2023-05-07T17:48:03;4.47;;;3.10;;
29848;SDS011;16728;50.832;5.590;2023-05-07T17:51:08;6.95;;;3.67;;
29848;SDS011;16728;50.832;5.590;2023-05-07T17:54:10;5.00;;;3.13;;
29848;SDS011;16728;50.832;5.590;2023-05-07T17:57:12;8.23;;;3.40;;
29848;SDS011;16728;50.832;5.590;2023-05-07T18:00:15;6.20;;;3.50;;
29848;SDS011;16728;50.832;5.590;2023-05-07T18:03:17;9.43;;;3.65;;
29848;SDS011;16728;50.832;5.590;2023-05-07T18:06:19;4.78;;;3.00;;
29848;SDS011;16728;50.832;5.590;2023-05-07T18:09:26;5.93;;;3.10;;
29848;SDS011;16728;50.832;5.590;2023-05-07T18:12:28;9.63;;;3.00;;
29848;SDS011;16728;50.832;5.590;2023-05-07T18:15:30;6.30;;;3.28;;
29848;SDS011;16728;50.832;5.590;2023-05-07T18:18:32;8.40;;;3.58;;
29848;SDS011;16728;50.832;5.590;2023-05-07T18:21:37;4.78;;;3.00;;
29848;SDS011;16728;50.832;5.590;2023-05-07T18:24:38;6.32;;;2.97;;
29848;SDS011;16728;50.832;5.590;2023-05-07T18:30:44;7.20;;;3.08;;
29848;SDS011;16728;50.832;5.590;2023-05-07T18:33:46;11.00;;;6.57;;
29848;SDS011;16728;50.832;5.590;2023-05-07T18:36:48;9.18;;;5.38;;
29848;SDS011;16728;50.832;5.590;2023-05-07T18:39:50;6.18;;;3.30;;
29848;SDS011;16728;50.832;5.590;2023-05-07T18:42:51;6.00;;;3.35;;
29848;SDS011;16728;50.832;5.590;2023-05-07T18:45:56;10.27;;;4.15;;
29848;SDS011;16728;50.832;5.590;2023-05-07T18:48:58;6.18;;;3.88;;
29848;SDS011;16728;50.832;5.590;2023-05-07T18:52:01;9.52;;;3.88;;
29848;SDS011;16728;50.832;5.590;2023-05-07T18:55:04;7.60;;;3.90;;
29848;SDS011;16728;50.832;5.590;2023-05-07T18:58:08;6.60;;;3.92;;
29848;SDS011;16728;50.832;5.590;2023-05-07T19:01:10;6.18;;;3.67;;
29848;SDS011;16728;50.832;5.590;2023-05-07T19:04:12;4.95;;;2.80;;
29848;SDS011;16728;50.832;5.590;2023-05-07T19:07:16;6.80;;;3.05;;